createdAt,value
2023-04-11T00:01:37.103Z,12.73
2023-04-11T00:04:08.240Z,17.33
2023-04-11T00:06:37.578Z,14.88
2023-04-11T00:09:06.761Z,12.00
2023-04-11T00:11:35.913Z,9.15
2023-04-11T00:14:05.922Z,13.23
2023-04-11T00:16:37.834Z,11.13
2023-04-11T00:19:09.825Z,16.15
2023-04-11T00:21:40.383Z,11.57
2023-04-11T00:24:10.009Z,12.70
2023-04-11T00:26:39.218Z,10.10
2023-04-11T00:29:08.316Z,11.00
2023-04-11T00:31:37.570Z,13.57
2023-04-11T00:34:08.269Z,14.43
2023-04-11T00:36:37.656Z,18.55
2023-04-11T00:39:06.955Z,11.27
2023-04-11T00:41:36.175Z,10.82
2023-04-11T00:44:05.367Z,25.38
2023-04-11T00:46:36.386Z,15.32
2023-04-11T00:49:05.596Z,16.23
2023-04-11T00:51:36.489Z,18.77
2023-04-11T00:54:13.748Z,17.75
2023-04-11T00:56:45.336Z,19.25
2023-04-11T00:59:14.980Z,16.08
2023-04-11T01:01:44.178Z,17.30
2023-04-11T01:04:17.832Z,11.57
2023-04-11T01:06:56.064Z,14.02
2023-04-11T01:09:29.587Z,12.60
2023-04-11T01:12:03.381Z,21.38
2023-04-11T01:14:32.883Z,9.45
2023-04-11T01:17:03.165Z,15.35
2023-04-11T01:19:37.793Z,10.13
2023-04-11T01:22:18.316Z,15.43
2023-04-11T01:24:48.865Z,21.77
2023-04-11T01:27:20.024Z,16.67
2023-04-11T01:29:49.183Z,19.85
2023-04-11T01:32:18.418Z,11.00
2023-04-11T01:34:56.936Z,24.23
2023-04-11T01:37:29.084Z,13.32
2023-04-11T01:40:01.615Z,16.90
2023-04-11T01:42:41.871Z,14.00
2023-04-11T01:45:15.091Z,13.50
2023-04-11T01:47:44.234Z,13.63
2023-04-11T01:50:15.333Z,11.77
2023-04-11T01:52:44.398Z,13.32
2023-04-11T01:55:17.539Z,24.88
2023-04-11T01:57:46.700Z,12.65
2023-04-11T02:00:20.058Z,15.93
2023-04-11T02:02:49.761Z,14.65
2023-04-11T02:05:22.609Z,17.33
2023-04-11T02:07:55.141Z,13.50
2023-04-11T02:10:28.579Z,21.08
2023-04-11T02:13:00.520Z,18.45
2023-04-11T02:15:32.745Z,13.15
2023-04-11T02:18:04.101Z,14.57
2023-04-11T02:20:40.001Z,15.60
2023-04-11T02:25:42.128Z,10.82
2023-04-11T02:28:12.991Z,9.00
2023-04-11T02:30:42.231Z,10.70
2023-04-11T02:33:17.436Z,21.75
2023-04-11T02:35:48.934Z,9.52
2023-04-11T02:38:18.209Z,14.73
2023-04-11T02:40:50.488Z,15.45
2023-04-11T02:43:29.849Z,12.55
2023-04-11T02:46:09.621Z,7.20
2023-04-11T02:48:41.637Z,13.75
2023-04-11T02:51:10.852Z,14.77
2023-04-11T02:53:58.311Z,11.32
2023-04-11T02:56:31.291Z,9.55
2023-04-11T02:59:00.392Z,9.95
2023-04-11T03:01:29.722Z,10.75
2023-04-11T03:03:59.211Z,15.45
2023-04-11T03:06:31.393Z,12.88
2023-04-11T03:09:03.029Z,13.73
2023-04-11T03:11:37.919Z,15.05
2023-04-11T03:14:09.185Z,13.35
2023-04-11T03:16:45.571Z,13.68
2023-04-11T03:19:14.707Z,8.98
2023-04-11T03:21:43.833Z,8.82
2023-04-11T03:24:14.047Z,11.63
2023-04-11T03:26:45.061Z,14.35
2023-04-11T03:29:14.143Z,10.90
2023-04-11T03:31:46.419Z,5.22
2023-04-11T03:34:18.370Z,7.97
2023-04-11T03:37:10.671Z,3.75
2023-04-11T03:39:43.356Z,1.27
2023-04-11T03:42:14.192Z,2.70
2023-04-11T03:44:46.325Z,6.65
2023-04-11T03:47:18.388Z,5.35
2023-04-11T03:49:47.514Z,7.00
2023-04-11T03:52:17.896Z,7.30
2023-04-11T03:55:07.681Z,5.22
2023-04-11T03:57:57.093Z,8.52
2023-04-11T04:00:43.592Z,5.20
2023-04-11T04:03:17.292Z,7.10
2023-04-11T04:05:46.583Z,3.55
2023-04-11T04:08:18.601Z,6.90
2023-04-11T04:10:50.741Z,5.88
2023-04-11T04:13:21.289Z,4.63
2023-04-11T04:15:56.463Z,2.92
2023-04-11T04:18:28.502Z,1.25
2023-04-11T04:20:57.679Z,1.50
2023-04-11T04:23:30.413Z,3.83
2023-04-11T04:26:02.543Z,6.45
2023-04-11T04:28:35.465Z,6.35
2023-04-11T04:31:04.583Z,7.25
2023-04-11T04:33:33.691Z,16.23
2023-04-11T04:36:07.444Z,19.58
2023-04-11T04:38:46.494Z,12.35
2023-04-11T04:41:16.606Z,12.68
2023-04-11T04:43:47.244Z,2.78
2023-04-11T04:46:19.882Z,2.08
2023-04-11T04:49:06.026Z,2.92
2023-04-11T04:51:35.239Z,8.35
2023-04-11T04:54:07.166Z,2.65
2023-04-11T04:56:36.437Z,10.15
2023-04-11T04:59:07.277Z,15.75
2023-04-11T05:01:40.399Z,9.65
2023-04-11T05:04:28.155Z,5.63
2023-04-11T05:06:57.450Z,5.28
2023-04-11T05:09:44.760Z,3.00
2023-04-11T05:12:14.214Z,1.88
2023-04-11T05:14:44.944Z,6.45
2023-04-11T05:17:14.055Z,6.55
2023-04-11T05:19:43.127Z,12.00
2023-04-11T05:22:12.533Z,7.88
2023-04-11T05:24:59.796Z,6.50
2023-04-11T05:27:28.973Z,6.25
2023-04-11T05:30:38.200Z,2.97
2023-04-11T05:33:07.966Z,5.05
2023-04-11T05:35:54.024Z,2.95
2023-04-11T05:38:41.648Z,5.18
2023-04-11T05:41:11.138Z,4.80
2023-04-11T05:43:40.296Z,8.23
2023-04-11T05:46:13.143Z,1.80
2023-04-11T05:48:42.347Z,4.38
2023-04-11T05:51:30.147Z,3.47
2023-04-11T05:53:59.281Z,4.43
2023-04-11T05:56:28.403Z,3.15
2023-04-11T05:58:57.584Z,3.15
2023-04-11T06:01:28.358Z,2.10
2023-04-11T06:03:58.027Z,4.43
2023-04-11T06:06:44.696Z,2.72
2023-04-11T06:09:32.017Z,5.53
2023-04-11T06:12:02.602Z,4.68
2023-04-11T06:14:32.659Z,3.90
2023-04-11T06:17:03.769Z,4.03
2023-04-11T06:19:32.965Z,4.00
2023-04-11T06:22:02.300Z,4.22
2023-04-11T06:24:38.625Z,3.90
2023-04-11T06:27:10.313Z,2.00
2023-04-11T06:29:57.966Z,1.35
2023-04-11T06:32:28.776Z,1.15
2023-04-11T06:34:58.162Z,5.03
2023-04-11T06:37:27.644Z,3.35
2023-04-11T06:40:15.086Z,0.77
2023-04-11T06:42:44.748Z,12.75
2023-04-11T06:45:14.333Z,24.67
2023-04-11T06:47:44.980Z,23.27
2023-04-11T06:50:14.385Z,15.05
2023-04-11T06:52:43.556Z,6.13
2023-04-11T06:55:31.432Z,3.90
2023-04-11T06:58:19.103Z,23.73
2023-04-11T07:01:05.266Z,9.30
2023-04-11T07:03:54.764Z,7.13
2023-04-11T07:06:24.375Z,1.60
2023-04-11T07:08:54.142Z,3.92
2023-04-11T07:11:43.260Z,3.33
2023-04-11T07:14:12.423Z,6.80
2023-04-11T07:17:02.835Z,5.28
2023-04-11T07:19:50.176Z,6.68
2023-04-11T07:22:19.360Z,3.83
2023-04-11T07:24:48.530Z,8.70
2023-04-11T07:27:36.638Z,1.17
2023-04-11T07:30:06.220Z,1.50
2023-04-11T07:32:52.795Z,6.70
2023-04-11T07:35:24.721Z,1.55
2023-04-11T07:37:54.490Z,6.57
2023-04-11T07:40:23.717Z,4.15
2023-04-11T07:42:52.936Z,5.90
2023-04-11T07:45:42.953Z,4.35
2023-04-11T07:48:12.420Z,5.97
2023-04-11T07:51:06.518Z,3.50
2023-04-11T07:53:38.495Z,8.82
2023-04-11T07:56:08.430Z,4.95
2023-04-11T07:58:37.808Z,3.75
2023-04-11T08:01:11.699Z,7.32
2023-04-11T08:03:54.172Z,17.27
2023-04-11T08:07:00.342Z,8.32
2023-04-11T08:09:49.507Z,7.55
2023-04-11T08:12:18.646Z,7.75
2023-04-11T08:14:50.565Z,5.22
2023-04-11T08:17:28.249Z,7.88
2023-04-11T08:20:19.456Z,9.90
2023-04-11T08:22:49.367Z,13.02
2023-04-11T08:25:34.998Z,7.97
2023-04-11T08:31:15.069Z,22.20
2023-04-11T08:33:56.997Z,5.72
2023-04-11T08:40:06.251Z,10.68
2023-04-11T08:46:19.941Z,8.32
2023-04-11T08:48:49.185Z,14.52
2023-04-11T08:51:41.088Z,7.00
2023-04-11T08:54:11.347Z,7.30
2023-04-11T08:56:43.702Z,4.85
2023-04-11T08:59:14.251Z,1.77
2023-04-11T09:02:04.123Z,6.35
2023-04-11T09:04:42.238Z,19.15
2023-04-11T09:07:48.079Z,15.80
2023-04-11T09:10:37.537Z,21.48
2023-04-11T09:13:22.738Z,14.68
2023-04-11T09:16:06.504Z,10.95
2023-04-11T09:18:37.045Z,16.23
2023-04-11T09:21:07.280Z,10.75
2023-04-11T09:23:36.481Z,19.35
2023-04-11T09:26:30.411Z,15.57
2023-04-11T09:29:16.502Z,13.98
2023-04-11T09:32:05.175Z,8.55
2023-04-11T09:34:37.918Z,20.70
2023-04-11T09:37:07.238Z,5.47
2023-04-11T09:39:36.474Z,16.13
2023-04-11T09:42:42.901Z,9.77
2023-04-11T09:45:51.625Z,4.85
2023-04-11T09:48:39.598Z,8.45
2023-04-11T09:51:27.638Z,7.55
2023-04-11T09:54:05.773Z,3.45
2023-04-11T09:56:38.628Z,6.35
2023-04-11T09:59:10.185Z,4.40
2023-04-11T10:01:41.624Z,8.40
2023-04-11T10:04:14.257Z,11.27
2023-04-11T10:06:50.466Z,7.15
2023-04-11T10:09:20.264Z,25.30
2023-04-11T10:11:49.589Z,27.52
2023-04-11T10:14:46.492Z,19.23
2023-04-11T10:17:34.576Z,16.02
2023-04-11T10:20:50.661Z,3.92
2023-04-11T10:23:19.844Z,8.82
2023-04-11T10:25:58.892Z,4.55
2023-04-11T10:28:53.571Z,8.27
2023-04-11T10:31:22.799Z,3.58
2023-04-11T10:34:16.504Z,9.50
2023-04-11T10:37:06.465Z,2.60
2023-04-11T10:40:10.262Z,9.85
2023-04-11T10:42:41.388Z,4.22
2023-04-11T10:45:40.031Z,8.93
2023-04-11T10:48:13.456Z,2.15
2023-04-11T10:50:46.558Z,10.95
2023-04-11T10:53:39.009Z,15.10
2023-04-11T10:56:26.642Z,30.38
2023-04-11T10:58:55.777Z,24.65
2023-04-11T11:01:37.063Z,14.27
2023-04-11T11:04:49.384Z,15.65
2023-04-11T11:07:19.226Z,10.57
2023-04-11T11:09:52.966Z,11.48
2023-04-11T11:12:40.284Z,10.00
2023-04-11T11:15:15.445Z,18.05
2023-04-11T11:17:45.292Z,12.02
2023-04-11T11:20:20.475Z,6.95
2023-04-11T11:23:24.254Z,2.60
2023-04-11T11:26:13.050Z,5.95
2023-04-11T11:28:48.855Z,7.78
2023-04-11T11:31:17.970Z,13.82
2023-04-11T11:34:22.200Z,27.65
2023-04-11T11:36:53.434Z,16.98
2023-04-11T11:39:41.367Z,20.27
2023-04-11T11:42:12.188Z,12.55
2023-04-11T11:47:55.612Z,8.07
2023-04-11T11:50:29.313Z,4.15
2023-04-11T11:53:14.163Z,5.10
2023-04-11T11:56:32.113Z,6.70
2023-04-11T11:59:03.740Z,7.50
2023-04-11T12:01:42.413Z,4.82
2023-04-11T12:04:13.498Z,9.63
2023-04-11T12:06:42.705Z,21.75
2023-04-11T12:09:12.712Z,23.98
2023-04-11T12:11:43.265Z,21.08
2023-04-11T12:14:48.987Z,16.75
2023-04-11T12:17:38.126Z,27.48
2023-04-11T12:20:25.748Z,39.58
2023-04-11T12:22:57.770Z,29.40
2023-04-11T12:25:44.841Z,25.27
2023-04-11T12:28:32.362Z,17.95
2023-04-11T12:31:01.538Z,22.73
2023-04-11T12:33:32.157Z,18.05
2023-04-11T12:36:02.215Z,17.52
2023-04-11T12:38:32.085Z,5.57
2023-04-11T12:41:29.655Z,2.60
2023-04-11T12:43:50.662Z,3.78
2023-04-11T12:46:37.998Z,2.88
2023-04-11T12:49:28.011Z,8.27
2023-04-11T12:51:57.289Z,14.75
2023-04-11T12:54:44.859Z,15.85
2023-04-11T12:57:31.058Z,14.07
2023-04-11T13:00:19.229Z,8.73
2023-04-11T13:02:49.112Z,16.50
2023-04-11T13:05:20.291Z,17.73
2023-04-11T13:08:06.368Z,20.75
2023-04-11T13:10:35.499Z,13.73
2023-04-11T13:13:15.390Z,25.00
2023-04-11T13:15:48.271Z,25.05
2023-04-11T13:18:17.478Z,19.38
2023-04-11T13:20:48.104Z,18.67
2023-04-11T13:23:17.556Z,19.35
2023-04-11T13:26:04.890Z,14.95
2023-04-11T13:28:35.387Z,14.20
2023-04-11T13:31:04.751Z,15.23
2023-04-11T13:33:33.910Z,7.70
2023-04-11T13:36:22.954Z,9.23
2023-04-11T13:38:53.036Z,16.55
2023-04-11T13:41:23.136Z,17.02
2023-04-11T13:43:53.712Z,29.25
2023-04-11T13:46:41.318Z,24.05
2023-04-11T13:49:10.429Z,10.68
2023-04-11T13:51:41.669Z,18.95
2023-04-11T13:54:10.864Z,22.35
2023-04-11T13:56:59.440Z,13.45
2023-04-11T13:59:29.404Z,13.27
2023-04-11T14:01:58.606Z,28.55
2023-04-11T14:04:27.967Z,20.98
2023-04-11T14:06:58.526Z,28.45
2023-04-11T14:09:27.734Z,21.27
2023-04-11T14:12:13.675Z,31.33
2023-04-11T14:14:42.732Z,11.55
2023-04-11T14:17:29.623Z,23.70
2023-04-11T14:19:58.751Z,29.65
2023-04-11T14:22:29.602Z,20.45
2023-04-11T14:24:58.826Z,9.32
2023-04-11T14:27:28.135Z,10.82
2023-04-11T14:30:15.545Z,20.33
2023-04-11T14:32:44.827Z,17.85
2023-04-11T14:35:14.068Z,11.38
2023-04-11T14:37:45.294Z,9.63
2023-04-11T14:40:15.787Z,9.90
2023-04-11T14:42:44.984Z,4.13
2023-04-11T14:45:14.047Z,7.00
2023-04-11T14:47:43.870Z,7.85
2023-04-11T14:50:13.355Z,8.52
2023-04-11T14:52:44.050Z,6.53
2023-04-11T14:55:14.012Z,7.40
2023-04-11T14:57:47.722Z,8.35
2023-04-11T15:00:21.413Z,9.43
2023-04-11T15:03:10.001Z,9.20
2023-04-11T15:05:39.237Z,23.45
2023-04-11T15:08:10.354Z,19.60
2023-04-11T15:10:39.440Z,11.65
2023-04-11T15:13:09.490Z,16.45
2023-04-11T15:15:38.827Z,19.70
2023-04-11T15:18:26.416Z,11.68
2023-04-11T15:20:56.960Z,10.95
2023-04-11T15:23:30.460Z,7.88
2023-04-11T15:26:01.152Z,9.35
2023-04-11T15:28:36.945Z,16.05
2023-04-11T15:31:25.423Z,13.50
2023-04-11T15:34:00.240Z,6.70
2023-04-11T15:36:30.261Z,17.92
2023-04-11T15:39:04.963Z,19.23
2023-04-11T15:41:34.057Z,26.38
2023-04-11T15:44:03.250Z,21.25
2023-04-11T15:46:36.792Z,20.60
2023-04-11T15:49:11.385Z,16.42
2023-04-11T15:52:01.112Z,24.17
2023-04-11T15:54:39.415Z,16.90
2023-04-11T15:57:08.759Z,13.70
2023-04-11T15:59:41.817Z,6.03
2023-04-11T16:02:11.032Z,8.55
2023-04-11T16:04:47.856Z,2.22
2023-04-11T16:07:19.745Z,4.53
2023-04-11T16:09:52.745Z,5.20
2023-04-11T16:12:57.460Z,5.28
2023-04-11T16:15:26.701Z,8.13
2023-04-11T16:17:58.451Z,3.53
2023-04-11T16:20:27.636Z,6.15
2023-04-11T16:22:56.795Z,5.50
2023-04-11T16:25:46.693Z,4.38
2023-04-11T16:28:52.834Z,6.10
2023-04-11T16:31:42.169Z,6.85
2023-04-11T16:34:11.436Z,5.47
2023-04-11T16:36:40.780Z,3.38
2023-04-11T16:39:13.233Z,6.13
2023-04-11T16:41:49.691Z,7.10
2023-04-11T16:44:36.958Z,10.30
2023-04-11T16:47:09.042Z,5.55
2023-04-11T16:49:41.100Z,8.45
2023-04-11T16:52:28.694Z,11.80
2023-04-11T16:54:57.903Z,7.32
2023-04-11T16:57:34.921Z,4.72
2023-04-11T17:00:17.719Z,6.57
2023-04-11T17:02:46.999Z,6.07
2023-04-11T17:05:33.312Z,2.10
2023-04-11T17:08:02.480Z,5.35
2023-04-11T17:10:34.701Z,6.55
2023-04-11T17:13:05.366Z,4.22
2023-04-11T17:15:36.156Z,3.42
2023-04-11T17:18:06.916Z,5.38
2023-04-11T17:20:54.244Z,4.93
2023-04-11T17:23:35.207Z,3.33
2023-04-11T17:26:11.139Z,5.00
2023-04-11T17:28:42.736Z,7.38
2023-04-11T17:31:15.560Z,9.52
2023-04-11T17:34:01.912Z,9.10
2023-04-11T17:36:33.753Z,7.97
2023-04-11T17:39:04.312Z,5.00
2023-04-11T17:41:50.606Z,7.53
2023-04-11T17:44:21.311Z,9.98
2023-04-11T17:46:50.722Z,6.25
2023-04-11T17:49:20.239Z,8.25
2023-04-11T17:51:59.278Z,6.25
2023-04-11T17:54:28.982Z,5.05
2023-04-11T17:56:58.176Z,4.40
2023-04-11T17:59:46.198Z,5.22
2023-04-11T18:02:15.433Z,4.20
2023-04-11T18:04:45.640Z,4.35
2023-04-11T18:07:14.895Z,6.18
2023-04-11T18:09:44.248Z,3.83
2023-04-11T18:12:13.440Z,6.25
2023-04-11T18:14:44.165Z,4.93
2023-04-11T18:17:13.456Z,5.13
2023-04-11T18:19:42.733Z,7.60
2023-04-11T18:22:30.088Z,3.47
2023-04-11T18:25:16.272Z,5.18
2023-04-11T18:27:45.619Z,5.22
2023-04-11T18:30:18.006Z,5.80
2023-04-11T18:32:50.087Z,6.38
2023-04-11T18:35:21.428Z,7.78
2023-04-11T18:38:08.587Z,8.23
2023-04-11T18:40:56.537Z,7.18
2023-04-11T18:43:43.470Z,7.47
2023-04-11T18:46:14.662Z,4.32
2023-04-11T18:48:43.988Z,4.60
2023-04-11T18:51:13.233Z,7.80
2023-04-11T18:53:42.495Z,6.22
2023-04-11T18:56:11.891Z,3.38
2023-04-11T18:58:45.711Z,4.40
2023-04-11T19:01:17.977Z,3.63
2023-04-11T19:03:47.918Z,2.67
2023-04-11T19:06:17.559Z,10.32
2023-04-11T19:08:47.408Z,10.93
2023-04-11T19:11:16.620Z,12.27
2023-04-11T19:14:03.731Z,15.98
2023-04-11T19:16:51.490Z,15.68
2023-04-11T19:19:20.711Z,16.20
2023-04-11T19:22:08.549Z,25.90
2023-04-11T19:24:55.969Z,18.77
2023-04-11T19:27:25.218Z,12.80
2023-04-11T19:29:54.388Z,1.13
2023-04-11T19:32:25.164Z,4.43
2023-04-11T19:34:54.428Z,14.63
2023-04-11T19:37:24.260Z,18.67
2023-04-11T19:39:53.525Z,9.57
2023-04-11T19:42:22.863Z,6.72
2023-04-11T19:44:52.047Z,10.27
2023-04-11T19:47:21.457Z,4.55
2023-04-11T19:50:29.217Z,1.65
2023-04-11T19:52:58.732Z,2.42
2023-04-11T19:55:44.725Z,4.50
2023-04-11T19:58:13.968Z,3.70
2023-04-11T20:00:43.213Z,3.13
2023-04-11T20:03:15.096Z,3.22
2023-04-11T20:05:46.372Z,3.60
2023-04-11T20:08:15.990Z,4.88
2023-04-11T20:11:04.315Z,3.08
2023-04-11T20:13:34.249Z,3.00
2023-04-11T20:16:05.236Z,1.55
2023-04-11T20:18:52.776Z,3.92
2023-04-11T20:21:40.330Z,7.68
2023-04-11T20:24:28.229Z,4.03
2023-04-11T20:27:16.220Z,3.58
2023-04-11T20:29:46.297Z,4.65
2023-04-11T20:32:50.956Z,6.07
2023-04-11T20:35:20.422Z,3.22
2023-04-11T20:37:51.599Z,4.68
2023-04-11T20:40:37.906Z,3.53
2023-04-11T20:43:26.073Z,2.45
2023-04-11T20:46:15.056Z,4.32
2023-04-11T20:48:44.516Z,6.85
2023-04-11T20:51:15.247Z,4.65
2023-04-11T20:53:46.238Z,2.90
2023-04-11T20:56:16.531Z,3.22
2023-04-11T20:58:46.869Z,2.50
2023-04-11T21:01:34.221Z,5.30
2023-04-11T21:04:03.841Z,3.20
2023-04-11T21:06:33.700Z,3.67
2023-04-11T21:09:05.947Z,4.97
2023-04-11T21:11:35.381Z,8.77
2023-04-11T21:14:04.508Z,6.47
2023-04-11T21:16:33.656Z,7.63
2023-04-11T21:19:02.841Z,4.00
2023-04-11T21:21:50.356Z,3.75
2023-04-11T21:24:21.073Z,3.60
2023-04-11T21:26:50.169Z,4.10
2023-04-11T21:29:19.298Z,3.63
2023-04-11T21:31:48.590Z,3.08
2023-04-11T21:34:36.244Z,1.60
2023-04-11T21:37:23.270Z,4.22
2023-04-11T21:39:56.274Z,8.10
2023-04-11T21:42:43.869Z,6.05
2023-04-11T21:45:31.311Z,7.70
2023-04-11T21:48:00.530Z,7.13
2023-04-11T21:50:29.829Z,6.78
2023-04-11T21:52:59.114Z,5.05
2023-04-11T21:55:29.880Z,3.03
2023-04-11T21:58:28.478Z,4.95
2023-04-11T22:01:17.060Z,2.83
2023-04-11T22:03:46.391Z,3.78
2023-04-11T22:06:15.660Z,3.83
2023-04-11T22:08:51.037Z,3.85
2023-04-11T22:11:21.812Z,1.48
2023-04-11T22:13:52.708Z,3.63
2023-04-11T22:16:26.744Z,3.78
2023-04-11T22:18:58.615Z,3.38
2023-04-11T22:21:28.224Z,3.05
2023-04-11T22:23:58.576Z,3.97
2023-04-11T22:26:34.663Z,9.57
2023-04-11T22:29:22.580Z,4.20
2023-04-11T22:31:53.140Z,4.07
2023-04-11T22:34:22.315Z,4.70
2023-04-11T22:36:51.456Z,4.82
2023-04-11T22:39:21.178Z,3.70
2023-04-11T22:42:11.362Z,6.78
2023-04-11T22:44:41.354Z,4.55
2023-04-11T22:47:16.853Z,8.38
2023-04-11T22:50:04.480Z,5.97
2023-04-11T22:52:33.679Z,6.38
2023-04-11T22:55:04.636Z,4.28
2023-04-11T22:57:36.895Z,5.75
2023-04-11T23:00:24.775Z,6.72
2023-04-11T23:03:12.941Z,6.70
2023-04-11T23:05:59.647Z,10.25
2023-04-11T23:08:29.000Z,10.95
2023-04-11T23:10:58.206Z,8.70
2023-04-11T23:13:28.904Z,7.65
2023-04-11T23:16:16.491Z,5.32
2023-04-11T23:18:45.717Z,5.47
2023-04-11T23:21:15.123Z,25.85
2023-04-11T23:23:44.428Z,10.57
2023-04-11T23:26:21.058Z,9.13
2023-04-11T23:28:52.076Z,19.67
2023-04-11T23:31:21.432Z,20.60
2023-04-11T23:33:50.684Z,27.27
2023-04-11T23:36:19.825Z,38.75
2023-04-11T23:39:07.301Z,31.15
2023-04-11T23:41:36.520Z,11.00
2023-04-11T23:44:07.354Z,11.02
2023-04-11T23:46:36.522Z,8.68
2023-04-11T23:49:05.976Z,7.07
2023-04-11T23:51:35.150Z,4.30
2023-04-11T23:54:22.481Z,5.95
2023-04-11T23:56:51.801Z,8.13
2023-04-11T23:59:22.420Z,7.50
